Time;durP1;ratioP1;P1;durP2;ratioP2;P2;SDS_P1;SDS_P2;PMS_P1;PMS_P2;Temp;Humidity;BMP_temperature;BMP_pressure;BME280_temperature;BME280_humidity;BME280_pressure;Samples;Min_cycle;Max_cycle;Signal;HPM_P1;HPM_P2
2022/06/02 00:00:44;;;;;;;9.45;7.75;;;;;;;9.06;78.93;101932.63;4945573;29;20027;-56
2022/06/02 00:03:25;;;;;;;11.20;8.95;;;;;;;9.06;79.51;101937.94;5003161;28;20102;-56
2022/06/02 00:06:16;;;;;;;11.88;9.20;;;;;;;9.04;79.81;101934.56;5048143;28;20075;-57
2022/06/02 00:09:02;;;;;;;14.10;10.10;;;;;;;9.05;80.14;101931.78;5049706;28;20104;-55
2022/06/02 00:12:01;;;;;;;11.80;9.55;;;;;;;9.07;80.23;101942.25;5049361;28;20020;-56
2022/06/02 00:14:48;;;;;;;12.55;9.98;;;;;;;9.07;80.28;101934.31;5047488;28;20366;-56
2022/06/02 00:17:32;;;;;;;13.60;8.93;;;;;;;9.09;80.19;101942.97;5048460;28;20041;-56
2022/06/02 00:20:08;;;;;;;11.43;9.52;;;;;;;9.08;80.28;101938.63;5048354;28;20079;-56
2022/06/02 00:23:10;;;;;;;13.82;10.30;;;;;;;9.15;80.17;101943.25;5048297;28;20035;-53
2022/06/02 00:25:45;;;;;;;12.65;10.43;;;;;;;9.12;80.25;101937.38;5048456;28;20025;-55
2022/06/02 00:28:32;;;;;;;14.93;10.63;;;;;;;9.13;80.48;101942.56;5044007;28;20040;-56
2022/06/02 00:31:36;;;;;;;14.43;10.02;;;;;;;9.15;80.16;101947.72;5048610;28;20025;-53
2022/06/02 00:34:31;;;;;;;10.88;9.70;;;;;;;9.11;80.56;101947.16;5045290;28;20082;-58
2022/06/02 00:37:18;;;;;;;13.02;10.82;;;;;;;9.04;80.25;101948.66;5044348;28;20484;-54
2022/06/02 00:39:46;;;;;;;15.63;12.10;;;;;;;9.05;80.40;101950.34;5045578;28;20059;-54
2022/06/02 00:42:31;;;;;;;14.68;11.23;;;;;;;9.07;80.84;101956.34;5050347;28;20484;-53
2022/06/02 00:44:59;;;;;;;13.70;10.82;;;;;;;9.11;80.82;101955.09;5050343;28;20236;-55
2022/06/02 00:47:46;;;;;;;11.38;9.63;;;;;;;9.10;80.53;101955.22;5045161;28;20138;-54
2022/06/02 00:50:20;;;;;;;11.38;8.30;;;;;;;9.10;80.82;101955.22;5048813;28;20032;-56
2022/06/02 00:52:58;;;;;;;8.75;7.95;;;;;;;9.12;80.67;101963.88;5046478;28;20029;-54
2022/06/02 00:58:45;;;;;;;6.60;5.72;;;;;;;9.19;80.54;101963.22;5041421;28;20082;-56
2022/06/02 01:01:17;;;;;;;8.85;7.53;;;;;;;9.12;80.49;101961.25;5045231;28;20029;-55
2022/06/02 01:03:47;;;;;;;9.52;8.02;;;;;;;9.03;80.40;101964.69;5048660;28;20035;-53
2022/06/02 01:06:19;;;;;;;7.88;7.15;;;;;;;8.95;79.97;101957.38;5047529;28;20037;-57
2022/06/02 01:09:03;;;;;;;10.25;7.63;;;;;;;8.85;80.08;101952.06;5043212;28;20086;-56
2022/06/02 01:11:58;;;;;;;9.15;8.20;;;;;;;8.82;80.08;101949.66;5047778;28;20083;-56
2022/06/02 01:14:55;;;;;;;11.02;9.50;;;;;;;8.86;80.09;101955.53;5044123;28;20037;-55
2022/06/02 01:17:33;;;;;;;12.32;10.32;;;;;;;8.84;80.40;101958.31;5043498;28;20124;-56
2022/06/02 01:20:11;;;;;;;10.95;9.75;;;;;;;8.81;80.18;101952.44;5050310;28;20060;-55
2022/06/02 01:22:50;;;;;;;12.90;9.30;;;;;;;8.78;80.42;101950.06;5045395;28;20039;-55
2022/06/02 01:25:22;;;;;;;10.13;9.13;;;;;;;8.71;80.29;101941.81;5046072;28;20029;-56
2022/06/02 01:27:51;;;;;;;9.93;7.82;;;;;;;8.66;80.47;101952.78;5045551;28;20041;-55
2022/06/02 01:30:44;;;;;;;8.93;8.02;;;;;;;8.66;80.78;101958.06;5047650;28;20028;-53
2022/06/02 01:33:27;;;;;;;11.18;9.93;;;;;;;8.58;80.64;101957.06;5046549;28;20308;-56
2022/06/02 01:36:06;;;;;;;10.93;8.52;;;;;;;8.56;80.59;101965.13;5039022;28;20063;-57
2022/06/02 01:38:55;;;;;;;8.13;5.63;;;;;;;8.47;80.93;101957.13;5049517;28;20033;-54
2022/06/02 01:41:42;;;;;;;5.97;4.03;;;;;;;8.42;80.66;101957.53;5044631;28;20104;-56
2022/06/02 01:44:18;;;;;;;3.80;3.50;;;;;;;8.40;80.76;101955.97;5048027;28;20020;-55
2022/06/02 01:47:05;;;;;;;7.85;4.68;;;;;;;8.36;81.28;101958.84;5043195;28;20029;-56
2022/06/02 01:49:53;;;;;;;15.70;5.57;;;;;;;8.26;81.24;101952.63;5045044;28;20025;-57
2022/06/02 01:52:37;;;;;;;8.15;7.35;;;;;;;8.18;81.37;101957.72;5043857;28;20160;-55
2022/06/02 01:55:29;;;;;;;8.65;7.75;;;;;;;8.09;81.64;101945.25;5043937;28;20052;-56
2022/06/02 01:58:16;;;;;;;7.20;6.07;;;;;;;8.03;81.36;101953.69;5045647;28;20032;-57
2022/06/02 02:00:45;;;;;;;6.68;6.07;;;;;;;7.98;81.48;101953.25;5041247;28;20039;-57
2022/06/02 02:03:31;;;;;;;6.00;5.50;;;;;;;7.92;81.60;101951.94;5043563;28;20389;-57
2022/06/02 02:05:59;;;;;;;6.00;5.15;;;;;;;7.87;81.44;101951.50;5044638;28;20452;-56
2022/06/02 02:08:39;;;;;;;7.07;6.38;;;;;;;7.86;81.97;101946.34;5044972;28;20694;-56
2022/06/02 02:11:27;;;;;;;7.75;6.95;;;;;;;7.88;81.73;101952.34;5046319;28;20032;-57
2022/06/02 02:14:10;;;;;;;9.82;7.40;;;;;;;7.85;81.87;101958.72;5047074;28;20048;-56
2022/06/02 02:17:12;;;;;;;10.77;9.63;;;;;;;7.89;82.16;101959.31;5045364;28;20451;-55
2022/06/02 02:19:58;;;;;;;13.15;9.35;;;;;;;8.00;82.37;101954.78;5047091;28;20064;-54
2022/06/02 02:22:43;;;;;;;8.02;7.22;;;;;;;8.03;82.68;101954.53;5045587;28;20508;-55
2022/06/02 02:25:28;;;;;;;9.02;7.25;;;;;;;8.07;82.58;101960.41;5036823;28;20069;-55
2022/06/02 02:28:03;;;;;;;7.72;6.95;;;;;;;8.12;82.27;101955.59;5044661;28;20036;-56
2022/06/02 02:30:49;;;;;;;7.43;6.68;;;;;;;8.13;82.30;101959.94;5047675;28;20039;-54
2022/06/02 02:33:51;;;;;;;8.27;7.30;;;;;;;8.13;82.44;101959.94;5043964;28;20052;-56
2022/06/02 02:36:32;;;;;;;7.78;7.07;;;;;;;8.10;82.16;101952.25;5043861;28;20076;-55
2022/06/02 02:39:16;;;;;;;10.38;7.95;;;;;;;8.07;81.77;101961.25;5042382;28;20033;-56
2022/06/02 02:41:48;;;;;;;9.65;8.65;;;;;;;8.01;81.53;101958.28;5041948;28;20036;-56
2022/06/02 02:44:49;;;;;;;8.43;7.50;;;;;;;7.98;81.60;101958.53;5045822;28;20024;-56
2022/06/02 02:47:22;;;;;;;8.90;7.00;;;;;;;7.90;81.48;101971.56;5023949;28;20046;-56
2022/06/02 02:50:17;;;;;;;8.85;7.75;;;;;;;7.84;81.33;101967.63;5045324;28;20516;-55
2022/06/02 02:52:55;;;;;;;6.32;5.72;;;;;;;7.75;81.58;101966.53;5041682;28;20032;-55
2022/06/02 02:55:27;;;;;;;5.97;5.20;;;;;;;7.70;81.57;101970.53;5040492;28;20167;-56
2022/06/02 02:58:15;;;;;;;4.57;4.18;;;;;;;7.68;81.83;101977.75;5046205;28;20074;-55
2022/06/02 03:00:59;;;;;;;4.47;3.97;;;;;;;7.57;81.71;101978.63;5043975;28;20041;-57
2022/06/02 03:03:36;;;;;;;9.00;7.45;;;;;;;7.46;81.84;101989.19;5043875;28;20143;-55
2022/06/02 03:06:23;;;;;;;10.68;8.68;;;;;;;7.40;82.16;101984.41;5043251;28;20029;-57
2022/06/02 03:09:16;;;;;;;11.70;9.98;;;;;;;7.40;82.45;101989.69;5039858;28;20028;-57
2022/06/02 03:11:50;;;;;;;13.00;10.98;;;;;;;7.34;82.54;101979.59;5046138;28;20060;-55
2022/06/02 03:14:34;;;;;;;14.80;12.95;;;;;;;7.42;83.07;101996.53;5043312;28;20507;-57
2022/06/02 03:17:20;;;;;;;17.20;12.40;;;;;;;7.37;83.25;101993.41;5041016;28;20635;-54
2022/06/02 03:19:56;;;;;;;12.52;9.68;;;;;;;7.28;83.32;102006.50;5043109;28;20451;-56
2022/06/02 03:22:42;;;;;;;12.57;9.93;;;;;;;7.23;83.11;101998.97;5045860;28;20040;-54
2022/06/02 03:25:31;;;;;;;10.35;9.10;;;;;;;7.19;83.17;102004.56;5044609;28;20333;-57
2022/06/02 03:28:33;;;;;;;12.67;9.67;;;;;;;7.20;82.81;102008.91;5044156;28;20033;-56
2022/06/02 03:31:06;;;;;;;12.45;10.05;;;;;;;7.14;82.93;102008.41;5039434;28;20366;-56
2022/06/02 03:34:19;;;;;;;14.30;11.10;;;;;;;7.22;83.44;102007.81;5049929;28;20056;-56
2022/06/02 03:37:00;;;;;;;16.35;12.23;;;;;;;7.26;83.48;102011.09;4968739;28;20511;-56
2022/06/02 03:39:28;;;;;;;16.70;13.30;;;;;;;7.28;83.79;102019.72;5044472;28;20119;-57
2022/06/02 03:42:28;;;;;;;19.88;14.40;;;;;;;7.30;84.26;102020.44;5048740;28;20037;-56
2022/06/02 03:45:18;;;;;;;19.15;13.90;;;;;;;7.27;84.01;102018.88;5049079;28;20028;-56
2022/06/02 03:48:08;;;;;;;16.30;13.68;;;;;;;7.26;84.13;102026.94;5044946;28;20037;-57
2022/06/02 03:50:33;;;;;;;16.83;13.23;;;;;;;7.22;83.97;102020.19;5049817;28;20035;-56
2022/06/02 03:53:40;;;;;;;13.98;12.23;;;;;;;7.28;84.13;102031.13;5050386;28;20017;-57
2022/06/02 03:56:17;;;;;;;17.65;12.25;;;;;;;7.35;84.31;102020.91;5003143;28;20043;-56
2022/06/02 03:58:57;;;;;;;15.15;12.63;;;;;;;7.40;84.47;102022.22;5040825;28;20520;-56
2022/06/02 04:01:32;;;;;;;18.75;13.68;;;;;;;7.46;84.31;102015.63;5048691;28;20399;-56
2022/06/02 04:04:09;;;;;;;17.83;13.52;;;;;;;7.45;84.20;102022.72;5051066;28;20520;-54
2022/06/02 04:07:12;;;;;;;17.38;12.93;;;;;;;7.55;84.23;102033.41;5048419;28;20041;-56
2022/06/02 04:09:49;;;;;;;17.35;12.60;;;;;;;7.54;84.08;102029.09;5049148;28;20029;-55
2022/06/02 04:16:20;;;;;;;17.33;13.77;;;;;;;7.56;83.99;102034.25;5047569;28;20071;-56
2022/06/02 04:22:41;;;;;;;16.52;13.68;;;;;;;7.56;84.07;102040.38;5043547;28;20040;-55
2022/06/02 04:25:32;;;;;;;16.50;14.40;;;;;;;7.58;84.39;102043.75;5025556;28;20037;-56
2022/06/02 04:28:22;;;;;;;18.48;14.35;;;;;;;7.59;84.27;102048.06;5044425;28;20039;-56
2022/06/02 04:31:08;;;;;;;18.38;14.80;;;;;;;7.61;84.29;102048.78;5043013;28;20025;-55
2022/06/02 04:33:36;;;;;;;19.17;14.77;;;;;;;7.64;84.45;102048.53;5049715;28;20036;-55
2022/06/02 04:36:16;;;;;;;24.02;16.40;;;;;;;7.65;84.74;102044.94;5044851;28;20399;-56
2022/06/02 04:38:51;;;;;;;18.20;15.80;;;;;;;7.64;84.99;102045.03;5045642;28;20489;-55
2022/06/02 04:41:31;;;;;;;22.58;17.98;;;;;;;7.65;84.87;102063.44;5049233;28;20033;-55
2022/06/02 04:44:14;;;;;;;28.45;21.15;;;;;;;7.72;85.55;102064.63;5046101;28;20401;-56
2022/06/02 04:46:55;;;;;;;26.27;20.77;;;;;;;7.77;85.66;102058.97;5047662;28;20451;-56
2022/06/02 04:49:38;;;;;;;28.83;20.80;;;;;;;7.83;85.93;102070.88;5047709;28;20025;-57
2022/06/02 04:52:31;;;;;;;27.05;20.90;;;;;;;7.89;86.18;102070.38;5046585;28;20033;-57
2022/06/02 04:55:18;;;;;;;26.70;20.38;;;;;;;7.95;86.64;102061.94;5046211;28;20469;-54
2022/06/02 04:57:57;;;;;;;25.02;18.65;;;;;;;7.98;86.50;102067.00;5047708;28;20280;-54
2022/06/02 05:00:35;;;;;;;26.98;17.80;;;;;;;8.04;86.74;102064.69;5047193;28;20595;-56
2022/06/02 05:03:20;;;;;;;24.13;18.27;;;;;;;8.11;86.69;102069.50;5046633;28;20033;-56
2022/06/02 05:06:11;;;;;;;26.85;20.80;;;;;;;8.24;86.72;102072.81;5046085;28;20431;-56
2022/06/02 05:08:43;;;;;;;26.38;20.98;;;;;;;8.42;87.39;102066.06;5047152;28;20629;-55
2022/06/02 05:11:13;;;;;;;30.13;22.58;;;;;;;8.48;87.23;102075.28;5044794;28;20106;-55
2022/06/02 05:13:52;;;;;;;27.30;22.02;;;;;;;8.53;87.12;102075.75;5047362;28;20469;-56
2022/06/02 05:16:26;;;;;;;30.25;22.38;;;;;;;8.61;87.02;102073.28;5043901;28;20023;-57
2022/06/02 05:19:06;;;;;;;28.13;21.45;;;;;;;8.67;86.93;102072.78;5048170;28;20054;-55
2022/06/02 05:21:53;;;;;;;27.88;22.80;;;;;;;8.75;86.85;102072.16;5045521;28;20082;-57
2022/06/02 05:24:21;;;;;;;28.73;22.35;;;;;;;8.76;86.86;102074.69;5044712;28;20037;-57
2022/06/02 05:27:18;;;;;;;30.70;23.85;;;;;;;8.78;87.07;102072.75;5048049;28;20682;-56
2022/06/02 05:30:05;;;;;;;32.10;23.15;;;;;;;8.86;87.48;102082.69;5047181;28;20431;-56
2022/06/02 05:33:22;;;;;;;34.80;26.85;;;;;;;8.92;87.62;102075.06;5039267;28;20767;-56
2022/06/02 05:36:15;;;;;;;36.60;26.58;;;;;;;8.99;88.04;102080.69;4993086;28;20086;-55
2022/06/02 05:39:10;;;;;;;33.95;26.95;;;;;;;9.05;88.14;102085.47;5045546;28;20174;-55
2022/06/02 05:41:55;;;;;;;35.92;27.33;;;;;;;9.15;88.38;102091.66;5047282;28;20028;-56
2022/06/02 05:44:29;;;;;;;33.85;27.88;;;;;;;9.26;88.52;102085.47;5042366;28;20025;-53
2022/06/02 05:47:09;;;;;;;38.30;27.98;;;;;;;9.33;88.73;102094.56;5046612;28;20076;-54
2022/06/02 05:49:51;;;;;;;37.25;28.45;;;;;;;9.45;88.80;102093.50;5047559;28;20033;-55
2022/06/02 05:52:30;;;;;;;37.38;28.45;;;;;;;9.55;88.99;102089.09;5041328;28;20123;-55
2022/06/02 05:55:26;;;;;;;37.47;28.80;;;;;;;9.65;88.58;102093.59;5040710;28;21111;-55
2022/06/02 05:58:14;;;;;;;33.92;27.83;;;;;;;9.72;88.47;102092.91;5044856;28;20539;-56
2022/06/02 06:00:49;;;;;;;35.97;28.57;;;;;;;9.78;88.57;102087.06;5046317;28;20033;-54
2022/06/02 06:03:32;;;;;;;37.65;28.85;;;;;;;9.83;88.41;102094.63;5049252;28;20037;-55
2022/06/02 06:06:18;;;;;;;39.05;28.02;;;;;;;9.92;88.63;102097.31;5047488;28;20033;-57
2022/06/02 06:09:21;;;;;;;35.97;27.55;;;;;;;10.05;88.51;102097.06;5043858;28;20040;-56
2022/06/02 06:12:01;;;;;;;36.58;27.73;;;;;;;10.16;88.68;102096.97;5053136;28;20388;-55
2022/06/02 06:14:40;;;;;;;34.03;26.63;;;;;;;10.29;88.54;102101.19;5042478;28;20020;-55
2022/06/02 06:17:24;;;;;;;37.72;27.63;;;;;;;10.39;88.19;102097.56;5044576;28;20040;-56
2022/06/02 06:20:31;;;;;;;32.78;26.08;;;;;;;10.52;88.49;102103.44;5039450;28;20044;-56
2022/06/02 06:23:15;;;;;;;32.10;25.83;;;;;;;10.67;88.25;102108.34;5040408;28;20476;-55
2022/06/02 06:26:11;;;;;;;32.30;24.70;;;;;;;10.88;88.54;102110.84;5047226;28;20029;-55
2022/06/02 06:28:59;;;;;;;32.25;24.05;;;;;;;11.05;87.75;102123.44;5045533;28;20569;-53
2022/06/02 06:31:39;;;;;;;35.00;24.90;;;;;;;11.25;87.83;102124.22;5045463;28;20028;-55
2022/06/02 06:34:32;;;;;;;30.60;23.85;;;;;;;11.42;87.17;102128.81;5043723;28;20275;-54
2022/06/02 06:37:18;;;;;;;30.17;24.42;;;;;;;11.60;87.24;102121.75;5044355;28;20491;-54
2022/06/02 06:40:01;;;;;;;31.67;24.02;;;;;;;11.76;87.03;102129.94;5042184;28;20037;-54
2022/06/02 06:42:49;;;;;;;27.58;23.15;;;;;;;11.90;86.29;102125.16;5043580;28;20493;-54
2022/06/02 06:45:18;;;;;;;26.17;22.05;;;;;;;12.00;86.05;102124.13;5037399;28;20025;-55
2022/06/02 06:48:00;;;;;;;29.15;22.73;;;;;;;12.15;85.75;102127.13;5045709;28;20559;-55
2022/06/02 06:50:44;;;;;;;26.83;21.42;;;;;;;12.26;85.32;102132.22;5044241;28;20094;-53
2022/06/02 06:54:01;;;;;;;27.17;21.08;;;;;;;12.36;84.53;102133.00;5045635;28;20115;-55
2022/06/02 06:56:44;;;;;;;22.33;18.88;;;;;;;12.49;83.91;102137.13;4992341;28;20486;-54
2022/06/02 06:59:39;;;;;;;21.50;19.17;;;;;;;12.53;83.13;102136.69;5044190;28;20021;-55
2022/06/02 07:02:30;;;;;;;21.35;17.48;;;;;;;12.56;82.79;102144.38;5040602;28;20293;-56
2022/06/02 07:05:09;;;;;;;21.23;17.77;;;;;;;12.48;81.66;102152.28;5049010;28;20514;-54
2022/06/02 07:07:40;;;;;;;;;;;;;;;12.51;81.74;102156.47;5048312;28;20496;-55
2022/06/02 07:10:17;;;;;;;20.10;17.95;;;;;;;12.56;81.48;102141.69;5051932;28;19909;-56
2022/06/02 07:12:51;;;;;;;18.40;16.40;;;;;;;12.67;81.69;102145.97;5041268;28;20029;-53
2022/06/02 07:15:27;;;;;;;20.00;16.05;;;;;;;12.76;80.71;102150.41;5048501;28;20072;-53
2022/06/02 07:18:15;;;;;;;20.13;15.05;;;;;;;12.91;80.49;102156.00;5050076;28;20530;-54
2022/06/02 07:20:54;;;;;;;16.55;14.55;;;;;;;13.03;79.79;102155.63;5048161;28;20049;-54
2022/06/02 07:23:28;;;;;;;16.38;14.15;;;;;;;13.14;79.60;102161.72;5049239;28;20033;-55
2022/06/02 07:26:08;;;;;;;18.38;13.55;;;;;;;13.12;78.43;102161.84;5047765;28;20538;-55
2022/06/02 07:28:45;;;;;;;;;;;;;;;13.24;78.23;102170.47;5053342;28;20048;-56
2022/06/02 07:31:29;;;;;;;16.40;14.07;;;;;;;13.13;77.89;102173.38;5049297;28;20300;-55
2022/06/02 07:33:57;;;;;;;16.45;14.25;;;;;;;13.13;77.52;102176.88;5049882;28;20656;-53
2022/06/02 07:37:04;;;;;;;15.40;13.50;;;;;;;13.17;77.36;102177.41;5047462;28;20013;-54
2022/06/02 07:39:45;;;;;;;15.30;12.77;;;;;;;13.22;77.45;102181.31;5049277;28;20074;-54
2022/06/02 07:42:39;;;;;;;15.38;13.20;;;;;;;13.27;77.14;102180.84;5048296;28;20029;-55
2022/06/02 07:45:22;;;;;;;16.10;13.95;;;;;;;13.38;76.91;102171.75;5043989;28;20033;-53
2022/06/02 07:48:00;;;;;;;16.73;14.02;;;;;;;13.36;76.38;102181.75;5045292;28;20044;-54
2022/06/02 07:50:34;;;;;;;14.95;13.18;;;;;;;13.34;76.02;102176.56;5050259;28;20036;-53
2022/06/02 07:53:13;;;;;;;15.48;13.95;;;;;;;13.31;75.75;102185.72;5049975;28;20120;-55
2022/06/02 07:55:56;;;;;;;18.33;14.30;;;;;;;13.31;75.55;102184.91;5047376;28;20029;-54
2022/06/02 07:58:51;;;;;;;13.75;12.23;;;;;;;13.36;75.50;102179.91;5041486;28;20389;-55
2022/06/02 08:01:16;;;;;;;12.52;11.32;;;;;;;13.29;74.95;102184.19;5046858;28;20044;-56
2022/06/02 08:04:22;;;;;;;11.98;10.80;;;;;;;13.26;73.89;102179.16;5050470;28;20021;-56
2022/06/02 08:06:55;;;;;;;13.95;11.63;;;;;;;13.23;74.11;102185.66;4958973;28;20098;-56
2022/06/02 08:09:46;;;;;;;13.60;11.05;;;;;;;13.23;73.89;102177.63;5045629;28;20196;-56
2022/06/02 08:12:16;;;;;;;12.00;10.60;;;;;;;13.24;73.27;102187.31;5047373;28;20033;-56
2022/06/02 08:14:59;;;;;;;12.60;10.73;;;;;;;13.29;72.66;102185.03;5048626;28;20043;-55
2022/06/02 08:17:31;;;;;;;11.55;10.38;;;;;;;13.39;72.55;102181.44;5047061;28;20021;-54
2022/06/02 08:20:02;;;;;;;15.48;9.98;;;;;;;13.38;71.92;102179.75;5049428;28;20404;-53
2022/06/02 08:22:59;;;;;;;9.52;8.63;;;;;;;13.51;71.14;102177.50;5047807;28;20027;-56
2022/06/02 08:25:33;;;;;;;12.90;9.18;;;;;;;13.58;70.60;102179.38;5048802;28;20062;-55
2022/06/02 08:28:04;;;;;;;11.65;8.88;;;;;;;13.82;70.59;102181.34;5050309;28;20029;-56
2022/06/02 08:30:38;;;;;;;14.00;9.07;;;;;;;14.01;70.53;102176.78;5048380;28;20420;-56
2022/06/02 08:33:38;;;;;;;9.73;8.55;;;;;;;14.23;69.04;102176.22;5047632;28;20036;-56
2022/06/02 08:36:06;;;;;;;10.27;8.60;;;;;;;14.40;69.09;102177.91;5046310;28;20025;-56
2022/06/02 08:38:55;;;;;;;10.80;8.63;;;;;;;14.60;68.23;102175.84;5048647;28;20025;-56
2022/06/02 08:41:29;;;;;;;8.50;7.70;;;;;;;14.80;67.81;102171.88;5054775;28;20063;-56
2022/06/02 08:44:37;;;;;;;9.20;8.30;;;;;;;15.10;67.77;102175.72;5050322;28;20385;-55
2022/06/02 08:47:47;;;;;;;8.93;8.02;;;;;;;15.39;67.12;102179.72;5047603;28;20013;-55
2022/06/02 08:50:40;;;;;;;8.85;8.05;;;;;;;15.68;65.43;102182.69;5015121;28;20511;-56
2022/06/02 08:53:30;;;;;;;10.32;8.23;;;;;;;15.81;65.58;102184.84;5051189;28;20044;-56
2022/06/02 08:56:13;;;;;;;10.65;8.52;;;;;;;16.03;65.28;102191.31;5049726;28;20541;-56
2022/06/02 08:58:58;;;;;;;12.43;7.80;;;;;;;16.18;64.12;102192.22;5047677;28;20021;-54
2022/06/02 09:02:10;;;;;;;8.75;7.75;;;;;;;16.26;63.05;102196.75;5048294;28;20033;-54
2022/06/02 09:04:50;;;;;;;8.63;7.28;;;;;;;16.31;62.46;102195.19;5048830;28;20111;-55
2022/06/02 09:07:47;;;;;;;10.18;8.10;;;;;;;16.39;61.97;102203.19;5050092;28;20043;-56
2022/06/02 09:10:15;;;;;;;10.20;7.80;;;;;;;16.51;61.21;102208.19;5045748;28;20384;-57
2022/06/02 09:13:14;;;;;;;10.40;8.13;;;;;;;16.48;60.61;102200.44;5051637;28;20032;-56
2022/06/02 09:15:46;;;;;;;;;;;;;;;16.61;61.03;102201.56;5048526;28;20021;-55
2022/06/02 09:18:39;;;;;;;9.20;7.80;;;;;;;16.93;59.82;102200.53;5047751;28;19919;-56
2022/06/02 09:21:18;;;;;;;9.75;8.75;;;;;;;17.23;59.89;102198.78;5047047;28;20057;-55
2022/06/02 09:23:48;;;;;;;9.18;7.85;;;;;;;17.54;59.13;102192.47;5040137;28;20431;-56
2022/06/02 09:26:51;;;;;;;8.23;7.35;;;;;;;17.64;57.26;102183.13;5047130;28;20392;-56
2022/06/02 09:29:42;;;;;;;7.97;7.18;;;;;;;17.88;57.54;102187.41;5046835;28;20074;-56
2022/06/02 09:32:30;;;;;;;8.88;7.78;;;;;;;18.04;57.53;102188.25;5045866;28;20287;-56
2022/06/02 09:35:10;;;;;;;9.75;7.57;;;;;;;18.11;56.80;102191.84;5044019;28;20037;-53
2022/06/02 09:38:25;;;;;;;8.63;7.80;;;;;;;18.13;55.86;102187.13;5041072;28;20016;-56
2022/06/02 09:41:13;;;;;;;9.13;7.85;;;;;;;17.92;55.72;102186.00;4965099;28;20041;-56
2022/06/02 09:44:43;;;;;;;9.15;8.23;;;;;;;17.95;54.49;102193.72;5039048;28;20032;-56
2022/06/02 09:47:42;;;;;;;9.35;8.15;;;;;;;17.90;54.84;102180.00;4983209;28;20922;-55
2022/06/02 09:50:17;;;;;;;8.40;7.60;;;;;;;17.94;55.17;102177.78;5043734;28;20392;-56
2022/06/02 09:53:11;;;;;;;9.70;8.57;;;;;;;17.93;55.20;102176.13;5046979;28;20062;-56
2022/06/02 09:55:52;;;;;;;9.30;8.32;;;;;;;17.89;55.17;102170.25;5047473;28;20074;-56
2022/06/02 09:58:36;;;;;;;9.93;8.93;;;;;;;17.94;55.47;102169.72;5043441;28;21373;-56
2022/06/02 10:01:58;;;;;;;10.32;8.57;;;;;;;18.14;56.57;102178.88;5048226;28;20025;-56
2022/06/02 10:04:37;;;;;;;10.00;8.95;;;;;;;18.42;56.88;102172.78;4946549;28;20042;-56
2022/06/02 10:07:32;;;;;;;10.50;9.18;;;;;;;18.48;55.63;102178.22;4942447;28;20031;-56
2022/06/02 10:10:22;;;;;;;10.20;8.70;;;;;;;18.74;55.22;102176.88;5030739;28;20059;-56
2022/06/02 10:13:00;;;;;;;9.20;7.63;;;;;;;18.75;54.22;102176.69;5050296;28;20059;-55
2022/06/02 10:15:26;;;;;;;9.03;8.17;;;;;;;18.94;53.27;102175.22;5046292;28;20025;-56
2022/06/02 10:17:56;;;;;;;8.30;7.25;;;;;;;19.13;52.58;102171.03;5047254;28;20059;-56
2022/06/02 10:20:40;;;;;;;7.75;7.05;;;;;;;19.09;51.19;102170.59;5038781;28;20035;-57
2022/06/02 10:23:19;;;;;;;9.27;7.80;;;;;;;19.02;50.49;102168.84;5046680;28;20048;-56
2022/06/02 10:26:04;;;;;;;14.90;7.95;;;;;;;18.91;49.96;102169.38;5045598;28;20048;-56
2022/06/02 10:28:32;;;;;;;9.50;7.63;;;;;;;18.92;50.48;102171.06;5041916;28;20040;-54
2022/06/02 10:31:35;;;;;;;9.87;8.20;;;;;;;19.29;52.15;102164.53;5043560;28;20678;-56
2022/06/02 10:34:38;;;;;;;8.93;7.85;;;;;;;19.58;52.37;102158.97;5037664;28;20291;-55
2022/06/02 10:37:40;;;;;;;8.63;7.60;;;;;;;19.71;51.50;102169.84;5041331;28;20268;-56
2022/06/02 10:41:00;;;;;;;8.45;7.50;;;;;;;19.66;50.09;102166.03;5043808;28;20423;-56
2022/06/02 10:43:55;;;;;;;8.45;7.55;;;;;;;19.57;49.68;102167.25;4967496;28;20169;-57
2022/06/02 10:46:39;;;;;;;7.30;6.60;;;;;;;19.62;49.20;102152.13;5041040;28;20027;-57
2022/06/02 10:49:36;;;;;;;7.85;6.90;;;;;;;19.67;49.14;102154.25;5045650;28;20036;-56
2022/06/02 10:52:46;;;;;;;8.05;6.70;;;;;;;19.77;49.51;102152.88;5047407;28;20551;-55
2022/06/02 10:55:28;;;;;;;8.27;7.47;;;;;;;19.90;48.71;102154.78;5045912;28;20017;-55
2022/06/02 10:58:22;;;;;;;9.07;8.18;;;;;;;19.77;48.30;102158.25;5041054;28;20576;-56
2022/06/02 11:01:24;;;;;;;8.25;7.45;;;;;;;19.98;48.95;102151.94;5044151;28;20036;-54
2022/06/02 11:04:14;;;;;;;8.80;7.90;;;;;;;20.02;48.43;102146.97;5045008;28;20116;-53
2022/06/02 11:07:16;;;;;;;7.82;7.05;;;;;;;20.33;48.87;102144.59;5042560;28;20151;-55
2022/06/02 11:09:47;;;;;;;9.07;8.18;;;;;;;20.53;49.39;102141.13;5043228;28;20087;-57
2022/06/02 11:12:24;;;;;;;10.82;8.73;;;;;;;20.20;47.31;102143.69;5053913;28;20100;-56
2022/06/02 11:15:00;;;;;;;10.98;8.10;;;;;;;20.06;47.04;102151.75;5042537;28;20115;-56
2022/06/02 11:17:44;;;;;;;10.13;8.18;;;;;;;19.91;46.91;102140.25;5040238;28;20055;-53
2022/06/02 11:20:31;;;;;;;10.43;7.40;;;;;;;19.99;47.83;102141.97;5037693;28;20032;-56
2022/06/02 11:23:21;;;;;;;8.73;7.65;;;;;;;19.94;46.59;102142.56;5044297;28;20074;-56
2022/06/02 11:26:04;;;;;;;7.40;6.70;;;;;;;19.98;46.24;102138.44;5045690;28;20086;-53
2022/06/02 11:29:07;;;;;;;7.05;6.30;;;;;;;20.07;46.00;102139.09;5046326;28;20025;-55
2022/06/02 11:31:51;;;;;;;7.85;6.82;;;;;;;20.01;45.57;102139.91;5043744;28;20473;-55
2022/06/02 11:34:31;;;;;;;7.93;6.35;;;;;;;20.15;45.63;102135.38;5040497;28;20036;-57
2022/06/02 11:37:08;;;;;;;7.60;6.80;;;;;;;20.20;45.17;102136.44;5044975;28;20084;-56
2022/06/02 11:39:50;;;;;;;7.05;6.35;;;;;;;20.30;46.14;102133.38;5044952;28;20033;-56
2022/06/02 11:42:42;;;;;;;10.98;7.95;;;;;;;20.50;47.56;102128.88;5041914;28;20117;-56
2022/06/02 11:45:16;;;;;;;9.70;7.30;;;;;;;20.52;46.96;102125.97;5039890;28;20124;-56
2022/06/02 11:48:16;;;;;;;9.55;7.68;;;;;;;20.40;46.22;102129.28;5040392;28;20028;-55
2022/06/02 11:51:08;;;;;;;8.50;7.03;;;;;;;20.45;46.13;102122.44;5045173;28;20037;-57
2022/06/02 11:53:36;;;;;;;8.00;7.20;;;;;;;20.49;46.13;102131.78;5047977;28;20079;-56
2022/06/02 11:56:25;;;;;;;8.32;7.53;;;;;;;20.51;46.26;102129.69;5050597;28;20020;-55
2022/06/02 11:59:36;;;;;;;8.93;7.63;;;;;;;20.33;45.45;102127.56;4999853;28;20033;-56
2022/06/02 12:02:44;;;;;;;7.63;6.82;;;;;;;20.20;45.85;102122.13;5045249;28;20485;-55
2022/06/02 12:05:32;;;;;;;7.72;6.90;;;;;;;19.93;45.74;102113.09;5007209;28;20709;-55
2022/06/02 12:08:31;;;;;;;8.88;6.78;;;;;;;20.00;46.10;102117.50;5044556;28;20029;-57
2022/06/02 12:11:14;;;;;;;7.35;6.55;;;;;;;20.15;45.57;102113.81;5048554;28;20106;-57
2022/06/02 12:14:00;;;;;;;7.78;6.95;;;;;;;20.38;46.10;102106.19;5044684;28;20033;-56
2022/06/02 12:16:54;;;;;;;6.47;5.70;;;;;;;20.54;45.27;102102.31;5057248;28;20021;-57
2022/06/02 12:19:55;;;;;;;5.05;4.55;;;;;;;20.41;44.25;102101.25;5046038;28;20053;-56
2022/06/02 12:22:27;;;;;;;8.98;5.50;;;;;;;20.31;43.75;102102.66;5044776;28;20115;-57
2022/06/02 12:25:04;;;;;;;6.18;5.25;;;;;;;20.31;44.52;102091.88;5050157;28;20315;-56
2022/06/02 12:27:47;;;;;;;7.38;5.72;;;;;;;20.34;43.90;102088.75;5045708;28;20060;-57
2022/06/02 12:30:50;;;;;;;7.82;5.57;;;;;;;20.36;43.56;102092.91;5049665;28;20184;-56
2022/06/02 12:33:28;;;;;;;5.60;5.00;;;;;;;20.49;43.33;102084.03;5044129;28;20660;-56
2022/06/02 12:36:33;;;;;;;6.15;4.90;;;;;;;20.81;43.49;102084.25;5048199;28;20032;-56
2022/06/02 12:39:24;;;;;;;6.43;5.78;;;;;;;21.15;43.48;102072.41;5039822;28;20504;-56
2022/06/02 12:42:31;;;;;;;8.05;5.80;;;;;;;21.47;43.74;102070.69;5046898;28;20212;-57
2022/06/02 12:45:25;;;;;;;5.45;4.70;;;;;;;21.62;42.95;102069.38;5046618;28;20037;-56
2022/06/02 12:48:15;;;;;;;5.57;5.05;;;;;;;21.74;42.80;102069.56;5008464;28;20048;-56
2022/06/02 12:51:02;;;;;;;6.47;5.88;;;;;;;21.64;41.01;102070.00;5047729;28;20102;-56
2022/06/02 12:54:04;;;;;;;7.25;6.00;;;;;;;21.30;39.50;102060.34;5049786;28;20118;-57
2022/06/02 12:56:36;;;;;;;6.40;5.18;;;;;;;21.12;39.37;102070.13;5047120;28;20044;-55